sensor_id;sensor_type;location;lat;lon;timestamp;temperature;humidity
52943;DHT22;38809;53.300;6.614;2023-05-10T00:01:25;13.70;99.90
52943;DHT22;38809;53.300;6.614;2023-05-10T00:03:51;13.80;99.90
52943;DHT22;38809;53.300;6.614;2023-05-10T00:06:17;13.70;99.90
52943;DHT22;38809;53.300;6.614;2023-05-10T00:08:42;13.60;99.90
52943;DHT22;38809;53.300;6.614;2023-05-10T00:11:08;13.60;99.90
52943;DHT22;38809;53.300;6.614;2023-05-10T00:13:34;13.50;99.90
52943;DHT22;38809;53.300;6.614;2023-05-10T00:15:59;13.50;99.90
52943;DHT22;38809;53.300;6.614;2023-05-10T00:18:25;13.50;99.90
52943;DHT22;38809;53.300;6.614;2023-05-10T00:20:51;13.40;99.90
52943;DHT22;38809;53.300;6.614;2023-05-10T00:23:16;13.40;99.90
52943;DHT22;38809;53.300;6.614;2023-05-10T00:25:42;13.40;99.90
52943;DHT22;38809;53.300;6.614;2023-05-10T00:28:08;13.20;99.90
52943;DHT22;38809;53.300;6.614;2023-05-10T00:30:33;13.20;99.90
52943;DHT22;38809;53.300;6.614;2023-05-10T00:32:59;13.30;99.90
52943;DHT22;38809;53.300;6.614;2023-05-10T00:35:25;13.20;99.90
52943;DHT22;38809;53.300;6.614;2023-05-10T00:37:51;13.10;99.90
52943;DHT22;38809;53.300;6.614;2023-05-10T00:40:17;13.20;99.90
52943;DHT22;38809;53.300;6.614;2023-05-10T00:42:43;13.10;99.90
52943;DHT22;38809;53.300;6.614;2023-05-10T00:45:08;13.10;99.90
52943;DHT22;38809;53.300;6.614;2023-05-10T00:47:35;13.20;99.90
52943;DHT22;38809;53.300;6.614;2023-05-10T00:50:01;13.10;99.90
52943;DHT22;38809;53.300;6.614;2023-05-10T00:52:28;13.10;99.90
52943;DHT22;38809;53.300;6.614;2023-05-10T00:54:54;13.10;99.90
52943;DHT22;38809;53.300;6.614;2023-05-10T00:57:21;13.20;99.90
52943;DHT22;38809;53.300;6.614;2023-05-10T00:59:47;13.10;99.90
52943;DHT22;38809;53.300;6.614;2023-05-10T01:02:13;13.10;99.90
52943;DHT22;38809;53.300;6.614;2023-05-10T01:04:39;13.00;99.90
52943;DHT22;38809;53.300;6.614;2023-05-10T01:07:05;13.00;99.90
52943;DHT22;38809;53.300;6.614;2023-05-10T01:09:31;13.00;99.90
52943;DHT22;38809;53.300;6.614;2023-05-10T01:11:57;13.20;99.90
52943;DHT22;38809;53.300;6.614;2023-05-10T01:14:23;13.00;99.90
52943;DHT22;38809;53.300;6.614;2023-05-10T01:16:50;13.20;99.90
52943;DHT22;38809;53.300;6.614;2023-05-10T01:19:29;13.10;99.90
52943;DHT22;38809;53.300;6.614;2023-05-10T01:28:25;13.10;99.90
52943;DHT22;38809;53.300;6.614;2023-05-10T01:33:55;13.10;99.90
52943;DHT22;38809;53.300;6.614;2023-05-10T01:36:55;12.90;99.90
52943;DHT22;38809;53.300;6.614;2023-05-10T01:42:14;12.90;99.90
52943;DHT22;38809;53.300;6.614;2023-05-10T01:44:53;12.90;99.90
52943;DHT22;38809;53.300;6.614;2023-05-10T01:47:35;12.80;99.90
52943;DHT22;38809;53.300;6.614;2023-05-10T01:50:04;12.80;99.90
52943;DHT22;38809;53.300;6.614;2023-05-10T01:52:41;13.00;99.90
52943;DHT22;38809;53.300;6.614;2023-05-10T01:55:13;12.80;99.90
52943;DHT22;38809;53.300;6.614;2023-05-10T01:57:42;12.80;99.90
52943;DHT22;38809;53.300;6.614;2023-05-10T02:00:09;12.80;99.90
52943;DHT22;38809;53.300;6.614;2023-05-10T02:02:40;12.80;99.90
52943;DHT22;38809;53.300;6.614;2023-05-10T02:05:08;12.70;99.90
52943;DHT22;38809;53.300;6.614;2023-05-10T02:07:36;12.80;99.90
52943;DHT22;38809;53.300;6.614;2023-05-10T02:10:07;12.70;99.90
52943;DHT22;38809;53.300;6.614;2023-05-10T02:12:39;12.70;99.90
52943;DHT22;38809;53.300;6.614;2023-05-10T02:15:07;12.70;99.90
52943;DHT22;38809;53.300;6.614;2023-05-10T02:17:35;12.60;99.90
52943;DHT22;38809;53.300;6.614;2023-05-10T02:20:02;12.60;99.90
52943;DHT22;38809;53.300;6.614;2023-05-10T02:22:29;12.80;99.90
52943;DHT22;38809;53.300;6.614;2023-05-10T02:24:56;12.70;99.90
52943;DHT22;38809;53.300;6.614;2023-05-10T02:27:23;12.70;99.90
52943;DHT22;38809;53.300;6.614;2023-05-10T02:29:50;12.80;99.90
52943;DHT22;38809;53.300;6.614;2023-05-10T02:32:17;12.70;99.90
52943;DHT22;38809;53.300;6.614;2023-05-10T02:34:45;12.70;99.90
52943;DHT22;38809;53.300;6.614;2023-05-10T02:37:15;12.70;99.90
52943;DHT22;38809;53.300;6.614;2023-05-10T02:39:44;12.70;99.90
52943;DHT22;38809;53.300;6.614;2023-05-10T02:42:17;12.70;99.90
52943;DHT22;38809;53.300;6.614;2023-05-10T02:44:47;12.60;99.90
52943;DHT22;38809;53.300;6.614;2023-05-10T02:47:14;12.60;99.90
52943;DHT22;38809;53.300;6.614;2023-05-10T02:49:39;12.70;99.90
52943;DHT22;38809;53.300;6.614;2023-05-10T02:52:06;12.60;99.90
52943;DHT22;38809;53.300;6.614;2023-05-10T02:54:41;12.60;99.90
52943;DHT22;38809;53.300;6.614;2023-05-10T02:57:13;12.70;99.90
52943;DHT22;38809;53.300;6.614;2023-05-10T02:59:40;12.50;99.90
52943;DHT22;38809;53.300;6.614;2023-05-10T03:02:09;12.70;99.90
52943;DHT22;38809;53.300;6.614;2023-05-10T03:04:35;12.60;99.90
52943;DHT22;38809;53.300;6.614;2023-05-10T03:07:01;12.60;99.90
52943;DHT22;38809;53.300;6.614;2023-05-10T03:09:27;12.70;99.90
52943;DHT22;38809;53.300;6.614;2023-05-10T03:17:11;12.60;99.90
52943;DHT22;38809;53.300;6.614;2023-05-10T03:19:53;12.60;99.90
52943;DHT22;38809;53.300;6.614;2023-05-10T03:22:34;12.60;99.90
52943;DHT22;38809;53.300;6.614;2023-05-10T03:25:05;12.60;99.90
52943;DHT22;38809;53.300;6.614;2023-05-10T03:27:32;12.70;99.90
52943;DHT22;38809;53.300;6.614;2023-05-10T03:29:59;12.60;99.90
52943;DHT22;38809;53.300;6.614;2023-05-10T03:32:29;12.50;99.90
52943;DHT22;38809;53.300;6.614;2023-05-10T03:34:57;12.50;99.90
52943;DHT22;38809;53.300;6.614;2023-05-10T03:37:22;12.60;99.90
52943;DHT22;38809;53.300;6.614;2023-05-10T03:39:48;12.60;99.90
52943;DHT22;38809;53.300;6.614;2023-05-10T03:42:14;12.60;99.90
52943;DHT22;38809;53.300;6.614;2023-05-10T03:44:40;12.60;99.90
52943;DHT22;38809;53.300;6.614;2023-05-10T03:47:05;12.60;99.90
52943;DHT22;38809;53.300;6.614;2023-05-10T03:49:31;12.50;99.90
52943;DHT22;38809;53.300;6.614;2023-05-10T03:51:57;12.50;99.90
52943;DHT22;38809;53.300;6.614;2023-05-10T03:54:23;12.60;99.90
52943;DHT22;38809;53.300;6.614;2023-05-10T03:56:48;12.50;99.90
52943;DHT22;38809;53.300;6.614;2023-05-10T03:59:14;12.50;99.90
52943;DHT22;38809;53.300;6.614;2023-05-10T04:01:40;12.50;99.90
52943;DHT22;38809;53.300;6.614;2023-05-10T04:04:06;12.50;99.90
52943;DHT22;38809;53.300;6.614;2023-05-10T04:06:31;12.50;99.90
52943;DHT22;38809;53.300;6.614;2023-05-10T04:08:57;12.50;99.90
52943;DHT22;38809;53.300;6.614;2023-05-10T04:11:25;12.50;99.90
52943;DHT22;38809;53.300;6.614;2023-05-10T04:13:51;12.50;99.90
52943;DHT22;38809;53.300;6.614;2023-05-10T04:16:17;12.50;99.90
52943;DHT22;38809;53.300;6.614;2023-05-10T04:18:42;12.50;99.90
52943;DHT22;38809;53.300;6.614;2023-05-10T04:21:12;12.30;99.90
52943;DHT22;38809;53.300;6.614;2023-05-10T04:23:39;12.40;99.90
52943;DHT22;38809;53.300;6.614;2023-05-10T04:26:04;12.40;99.90
52943;DHT22;38809;53.300;6.614;2023-05-10T04:28:30;12.50;99.90
52943;DHT22;38809;53.300;6.614;2023-05-10T04:31:01;12.40;99.90
52943;DHT22;38809;53.300;6.614;2023-05-10T04:33:27;12.40;99.90
52943;DHT22;38809;53.300;6.614;2023-05-10T04:35:53;12.40;99.90
52943;DHT22;38809;53.300;6.614;2023-05-10T04:38:19;12.40;99.90
52943;DHT22;38809;53.300;6.614;2023-05-10T04:40:44;12.40;99.90
52943;DHT22;38809;53.300;6.614;2023-05-10T04:43:10;12.40;99.90
52943;DHT22;38809;53.300;6.614;2023-05-10T04:45:36;12.40;99.90
52943;DHT22;38809;53.300;6.614;2023-05-10T04:48:01;12.40;99.90
52943;DHT22;38809;53.300;6.614;2023-05-10T04:50:27;12.50;99.90
52943;DHT22;38809;53.300;6.614;2023-05-10T04:52:53;12.40;99.90
52943;DHT22;38809;53.300;6.614;2023-05-10T04:55:18;12.50;99.90
52943;DHT22;38809;53.300;6.614;2023-05-10T04:57:44;12.40;99.90
52943;DHT22;38809;53.300;6.614;2023-05-10T05:00:10;12.50;99.90
52943;DHT22;38809;53.300;6.614;2023-05-10T05:02:36;12.50;99.90
52943;DHT22;38809;53.300;6.614;2023-05-10T05:05:02;12.40;99.90
52943;DHT22;38809;53.300;6.614;2023-05-10T05:07:28;12.50;99.90
52943;DHT22;38809;53.300;6.614;2023-05-10T05:09:53;12.40;99.90
52943;DHT22;38809;53.300;6.614;2023-05-10T05:12:19;12.50;99.90
52943;DHT22;38809;53.300;6.614;2023-05-10T05:14:45;12.40;99.90
52943;DHT22;38809;53.300;6.614;2023-05-10T05:17:10;12.50;99.90
52943;DHT22;38809;53.300;6.614;2023-05-10T05:19:36;12.50;99.90
52943;DHT22;38809;53.300;6.614;2023-05-10T05:22:02;12.50;99.90
52943;DHT22;38809;53.300;6.614;2023-05-10T05:24:28;12.50;99.90
52943;DHT22;38809;53.300;6.614;2023-05-10T05:26:53;12.40;99.90
52943;DHT22;38809;53.300;6.614;2023-05-10T05:29:19;12.50;99.90
52943;DHT22;38809;53.300;6.614;2023-05-10T05:31:45;12.50;99.90
52943;DHT22;38809;53.300;6.614;2023-05-10T05:34:10;12.50;99.90
52943;DHT22;38809;53.300;6.614;2023-05-10T05:36:37;12.40;99.90
52943;DHT22;38809;53.300;6.614;2023-05-10T05:39:05;12.50;99.90
52943;DHT22;38809;53.300;6.614;2023-05-10T05:41:31;12.50;99.90
52943;DHT22;38809;53.300;6.614;2023-05-10T05:43:56;12.50;99.90
52943;DHT22;38809;53.300;6.614;2023-05-10T05:46:22;12.60;99.90
52943;DHT22;38809;53.300;6.614;2023-05-10T05:48:48;12.60;99.90
52943;DHT22;38809;53.300;6.614;2023-05-10T05:51:13;12.60;99.90
52943;DHT22;38809;53.300;6.614;2023-05-10T05:53:39;12.60;99.90
52943;DHT22;38809;53.300;6.614;2023-05-10T05:56:05;12.60;99.90
52943;DHT22;38809;53.300;6.614;2023-05-10T05:58:31;12.70;99.90
52943;DHT22;38809;53.300;6.614;2023-05-10T06:00:56;12.70;99.90
52943;DHT22;38809;53.300;6.614;2023-05-10T06:03:22;12.70;99.90
52943;DHT22;38809;53.300;6.614;2023-05-10T06:05:48;12.70;99.90
52943;DHT22;38809;53.300;6.614;2023-05-10T06:08:14;12.70;99.90
52943;DHT22;38809;53.300;6.614;2023-05-10T06:10:39;12.70;99.90
52943;DHT22;38809;53.300;6.614;2023-05-10T06:13:05;12.70;99.90
52943;DHT22;38809;53.300;6.614;2023-05-10T06:15:31;12.70;99.90
52943;DHT22;38809;53.300;6.614;2023-05-10T06:17:58;12.60;99.90
52943;DHT22;38809;53.300;6.614;2023-05-10T06:20:23;12.60;99.90
52943;DHT22;38809;53.300;6.614;2023-05-10T06:22:49;12.60;99.90
52943;DHT22;38809;53.300;6.614;2023-05-10T06:25:15;12.50;99.90
52943;DHT22;38809;53.300;6.614;2023-05-10T06:27:43;12.60;99.90
52943;DHT22;38809;53.300;6.614;2023-05-10T06:30:09;12.60;99.90
52943;DHT22;38809;53.300;6.614;2023-05-10T06:32:35;12.60;99.90
52943;DHT22;38809;53.300;6.614;2023-05-10T06:35:01;12.60;99.90
52943;DHT22;38809;53.300;6.614;2023-05-10T06:37:27;12.50;99.90
52943;DHT22;38809;53.300;6.614;2023-05-10T06:39:52;12.60;99.90
52943;DHT22;38809;53.300;6.614;2023-05-10T06:42:18;12.60;99.90
52943;DHT22;38809;53.300;6.614;2023-05-10T06:44:44;12.50;99.90
52943;DHT22;38809;53.300;6.614;2023-05-10T06:47:09;12.50;99.90
52943;DHT22;38809;53.300;6.614;2023-05-10T06:49:35;12.50;99.90
52943;DHT22;38809;53.300;6.614;2023-05-10T06:52:01;12.50;99.90
52943;DHT22;38809;53.300;6.614;2023-05-10T06:54:26;12.50;99.90
52943;DHT22;38809;53.300;6.614;2023-05-10T06:56:52;12.40;99.90
52943;DHT22;38809;53.300;6.614;2023-05-10T06:59:18;12.50;99.90
52943;DHT22;38809;53.300;6.614;2023-05-10T07:01:44;12.50;99.90
52943;DHT22;38809;53.300;6.614;2023-05-10T07:04:10;12.50;99.90
52943;DHT22;38809;53.300;6.614;2023-05-10T07:06:36;12.40;99.90
52943;DHT22;38809;53.300;6.614;2023-05-10T07:09:02;12.50;99.90
52943;DHT22;38809;53.300;6.614;2023-05-10T07:11:27;12.40;99.90
52943;DHT22;38809;53.300;6.614;2023-05-10T07:13:53;12.40;99.90
52943;DHT22;38809;53.300;6.614;2023-05-10T07:16:19;12.50;99.90
52943;DHT22;38809;53.300;6.614;2023-05-10T07:18:44;12.40;99.90
52943;DHT22;38809;53.300;6.614;2023-05-10T07:21:10;12.50;99.90
52943;DHT22;38809;53.300;6.614;2023-05-10T07:23:36;12.50;99.90
52943;DHT22;38809;53.300;6.614;2023-05-10T07:26:02;12.40;99.90
52943;DHT22;38809;53.300;6.614;2023-05-10T07:28:27;12.40;99.90
52943;DHT22;38809;53.300;6.614;2023-05-10T07:30:53;12.40;99.90
52943;DHT22;38809;53.300;6.614;2023-05-10T07:33:19;12.50;99.90
52943;DHT22;38809;53.300;6.614;2023-05-10T07:35:44;12.40;99.90
52943;DHT22;38809;53.300;6.614;2023-05-10T07:38:10;12.40;99.90
52943;DHT22;38809;53.300;6.614;2023-05-10T07:40:36;12.50;99.90
52943;DHT22;38809;53.300;6.614;2023-05-10T07:43:03;12.50;99.90
52943;DHT22;38809;53.300;6.614;2023-05-10T07:45:29;12.60;99.90
52943;DHT22;38809;53.300;6.614;2023-05-10T07:47:54;12.60;99.90
52943;DHT22;38809;53.300;6.614;2023-05-10T07:50:20;12.60;99.90
52943;DHT22;38809;53.300;6.614;2023-05-10T07:52:47;12.50;99.90
52943;DHT22;38809;53.300;6.614;2023-05-10T07:55:13;12.60;99.90
52943;DHT22;38809;53.300;6.614;2023-05-10T07:57:39;12.70;99.90
52943;DHT22;38809;53.300;6.614;2023-05-10T08:00:06;12.60;99.90
52943;DHT22;38809;53.300;6.614;2023-05-10T08:02:33;12.60;99.90
52943;DHT22;38809;53.300;6.614;2023-05-10T08:04:59;12.60;99.90
52943;DHT22;38809;53.300;6.614;2023-05-10T08:07:25;12.60;99.90
52943;DHT22;38809;53.300;6.614;2023-05-10T08:09:50;12.70;99.90
52943;DHT22;38809;53.300;6.614;2023-05-10T08:12:16;12.60;99.90
52943;DHT22;38809;53.300;6.614;2023-05-10T08:14:42;12.80;99.90
52943;DHT22;38809;53.300;6.614;2023-05-10T08:17:08;12.80;99.90
52943;DHT22;38809;53.300;6.614;2023-05-10T08:19:34;12.80;99.90
52943;DHT22;38809;53.300;6.614;2023-05-10T08:22:00;12.70;99.90
52943;DHT22;38809;53.300;6.614;2023-05-10T08:24:25;12.60;99.90
52943;DHT22;38809;53.300;6.614;2023-05-10T08:26:51;12.80;99.90
52943;DHT22;38809;53.300;6.614;2023-05-10T08:29:17;12.70;99.90
52943;DHT22;38809;53.300;6.614;2023-05-10T08:31:43;12.70;99.90
52943;DHT22;38809;53.300;6.614;2023-05-10T08:34:08;12.80;99.90
52943;DHT22;38809;53.300;6.614;2023-05-10T08:36:34;12.80;99.90
52943;DHT22;38809;53.300;6.614;2023-05-10T08:39:00;12.90;99.90
52943;DHT22;38809;53.300;6.614;2023-05-10T08:41:26;12.90;99.90
52943;DHT22;38809;53.300;6.614;2023-05-10T08:43:53;12.90;99.90
52943;DHT22;38809;53.300;6.614;2023-05-10T08:46:20;13.00;99.90
52943;DHT22;38809;53.300;6.614;2023-05-10T08:48:48;12.80;99.90
52943;DHT22;38809;53.300;6.614;2023-05-10T08:51:17;13.00;99.90
52943;DHT22;38809;53.300;6.614;2023-05-10T08:53:44;12.90;99.90
52943;DHT22;38809;53.300;6.614;2023-05-10T08:56:10;12.90;99.90
52943;DHT22;38809;53.300;6.614;2023-05-10T08:58:37;12.90;99.90
52943;DHT22;38809;53.300;6.614;2023-05-10T09:01:03;13.00;99.90
52943;DHT22;38809;53.300;6.614;2023-05-10T09:03:29;13.00;99.90
52943;DHT22;38809;53.300;6.614;2023-05-10T09:05:55;13.10;99.90
52943;DHT22;38809;53.300;6.614;2023-05-10T09:08:22;13.00;99.90
52943;DHT22;38809;53.300;6.614;2023-05-10T09:10:50;13.10;99.90
52943;DHT22;38809;53.300;6.614;2023-05-10T09:13:17;13.00;99.90
52943;DHT22;38809;53.300;6.614;2023-05-10T09:15:44;13.10;99.90
52943;DHT22;38809;53.300;6.614;2023-05-10T09:18:10;13.10;99.90
52943;DHT22;38809;53.300;6.614;2023-05-10T09:20:36;13.20;99.90
52943;DHT22;38809;53.300;6.614;2023-05-10T09:23:02;13.40;99.90
52943;DHT22;38809;53.300;6.614;2023-05-10T09:25:27;13.40;99.90
52943;DHT22;38809;53.300;6.614;2023-05-10T09:27:53;13.40;99.90
52943;DHT22;38809;53.300;6.614;2023-05-10T09:30:25;13.50;99.90
52943;DHT22;38809;53.300;6.614;2023-05-10T09:32:51;13.40;99.90
52943;DHT22;38809;53.300;6.614;2023-05-10T09:35:20;13.40;99.90
52943;DHT22;38809;53.300;6.614;2023-05-10T09:37:48;13.40;99.90
52943;DHT22;38809;53.300;6.614;2023-05-10T09:40:16;13.40;99.90
52943;DHT22;38809;53.300;6.614;2023-05-10T09:43:00;13.50;99.90
52943;DHT22;38809;53.300;6.614;2023-05-10T09:45:33;13.50;99.90
52943;DHT22;38809;53.300;6.614;2023-05-10T09:47:59;13.50;99.90
52943;DHT22;38809;53.300;6.614;2023-05-10T09:50:26;13.60;99.90
52943;DHT22;38809;53.300;6.614;2023-05-10T09:53:00;13.50;99.90
52943;DHT22;38809;53.300;6.614;2023-05-10T09:55:39;13.60;99.90
52943;DHT22;38809;53.300;6.614;2023-05-10T09:58:06;13.60;99.90
52943;DHT22;38809;53.300;6.614;2023-05-10T10:00:36;13.70;99.90
52943;DHT22;38809;53.300;6.614;2023-05-10T10:03:03;13.60;99.90
52943;DHT22;38809;53.300;6.614;2023-05-10T10:05:29;13.70;99.90
52943;DHT22;38809;53.300;6.614;2023-05-10T10:07:57;13.80;99.90
52943;DHT22;38809;53.300;6.614;2023-05-10T10:10:24;13.80;99.90
52943;DHT22;38809;53.300;6.614;2023-05-10T10:12:51;13.90;99.90
52943;DHT22;38809;53.300;6.614;2023-05-10T10:15:16;13.80;99.90
52943;DHT22;38809;53.300;6.614;2023-05-10T10:17:43;13.90;99.90
52943;DHT22;38809;53.300;6.614;2023-05-10T10:20:09;14.00;99.90
52943;DHT22;38809;53.300;6.614;2023-05-10T10:22:35;14.10;99.90
52943;DHT22;38809;53.300;6.614;2023-05-10T10:25:02;14.00;99.90
52943;DHT22;38809;53.300;6.614;2023-05-10T10:35:35;14.40;99.90
52943;DHT22;38809;53.300;6.614;2023-05-10T10:38:01;14.40;99.90
52943;DHT22;38809;53.300;6.614;2023-05-10T10:40:32;14.40;99.90
52943;DHT22;38809;53.300;6.614;2023-05-10T10:43:24;14.50;99.90
52943;DHT22;38809;53.300;6.614;2023-05-10T10:46:15;14.60;99.90
52943;DHT22;38809;53.300;6.614;2023-05-10T10:48:47;14.50;99.90
52943;DHT22;38809;53.300;6.614;2023-05-10T10:51:14;14.70;99.90
52943;DHT22;38809;53.300;6.614;2023-05-10T10:53:40;14.70;99.90
52943;DHT22;38809;53.300;6.614;2023-05-10T10:56:08;14.60;99.90
52943;DHT22;38809;53.300;6.614;2023-05-10T10:58:36;14.70;99.90
52943;DHT22;38809;53.300;6.614;2023-05-10T11:01:14;14.60;99.90
52943;DHT22;38809;53.300;6.614;2023-05-10T11:03:40;14.70;99.90
52943;DHT22;38809;53.300;6.614;2023-05-10T11:06:06;14.80;99.90
52943;DHT22;38809;53.300;6.614;2023-05-10T11:08:41;14.80;99.90
52943;DHT22;38809;53.300;6.614;2023-05-10T11:11:08;14.90;99.90
52943;DHT22;38809;53.300;6.614;2023-05-10T11:13:39;14.80;99.90
52943;DHT22;38809;53.300;6.614;2023-05-10T11:16:22;14.80;99.90
52943;DHT22;38809;53.300;6.614;2023-05-10T11:19:08;14.80;99.90
52943;DHT22;38809;53.300;6.614;2023-05-10T11:21:48;14.70;99.90
52943;DHT22;38809;53.300;6.614;2023-05-10T11:24:22;14.70;99.90
52943;DHT22;38809;53.300;6.614;2023-05-10T11:26:51;14.80;99.90
52943;DHT22;38809;53.300;6.614;2023-05-10T11:29:17;14.80;99.90
52943;DHT22;38809;53.300;6.614;2023-05-10T11:31:47;14.90;99.90
52943;DHT22;38809;53.300;6.614;2023-05-10T11:34:30;15.00;99.90
52943;DHT22;38809;53.300;6.614;2023-05-10T11:36:59;15.10;99.90
52943;DHT22;38809;53.300;6.614;2023-05-10T11:39:27;15.10;99.90
52943;DHT22;38809;53.300;6.614;2023-05-10T11:41:53;15.00;99.90
52943;DHT22;38809;53.300;6.614;2023-05-10T11:44:18;15.00;99.90
52943;DHT22;38809;53.300;6.614;2023-05-10T11:46:44;15.10;99.90
52943;DHT22;38809;53.300;6.614;2023-05-10T11:49:10;15.20;99.90
52943;DHT22;38809;53.300;6.614;2023-05-10T11:51:36;15.30;99.90
52943;DHT22;38809;53.300;6.614;2023-05-10T11:54:06;15.30;99.90
52943;DHT22;38809;53.300;6.614;2023-05-10T11:56:33;15.20;99.90
52943;DHT22;38809;53.300;6.614;2023-05-10T11:59:00;15.30;99.90
52943;DHT22;38809;53.300;6.614;2023-05-10T12:01:28;15.40;99.90
52943;DHT22;38809;53.300;6.614;2023-05-10T12:03:55;15.40;99.90
52943;DHT22;38809;53.300;6.614;2023-05-10T12:06:32;15.50;99.90
52943;DHT22;38809;53.300;6.614;2023-05-10T12:09:06;15.50;99.90
52943;DHT22;38809;53.300;6.614;2023-05-10T12:11:32;15.50;99.90
52943;DHT22;38809;53.300;6.614;2023-05-10T12:13:57;15.40;99.90
52943;DHT22;38809;53.300;6.614;2023-05-10T12:16:25;15.50;99.90
52943;DHT22;38809;53.300;6.614;2023-05-10T12:18:55;15.50;99.90
52943;DHT22;38809;53.300;6.614;2023-05-10T12:21:21;15.40;99.90
52943;DHT22;38809;53.300;6.614;2023-05-10T12:23:52;15.40;99.90
52943;DHT22;38809;53.300;6.614;2023-05-10T12:26:20;15.40;99.90
52943;DHT22;38809;53.300;6.614;2023-05-10T12:28:47;15.30;99.90
52943;DHT22;38809;53.300;6.614;2023-05-10T12:31:12;15.20;99.90
52943;DHT22;38809;53.300;6.614;2023-05-10T12:33:43;15.10;99.90
52943;DHT22;38809;53.300;6.614;2023-05-10T12:36:10;15.00;99.90
52943;DHT22;38809;53.300;6.614;2023-05-10T12:38:44;14.90;99.90
52943;DHT22;38809;53.300;6.614;2023-05-10T12:41:14;14.90;99.90
52943;DHT22;38809;53.300;6.614;2023-05-10T12:43:40;14.90;99.90
52943;DHT22;38809;53.300;6.614;2023-05-10T12:46:10;14.90;99.90
52943;DHT22;38809;53.300;6.614;2023-05-10T12:48:38;15.00;99.90
52943;DHT22;38809;53.300;6.614;2023-05-10T12:51:05;15.00;99.90
52943;DHT22;38809;53.300;6.614;2023-05-10T12:53:31;15.00;99.90
52943;DHT22;38809;53.300;6.614;2023-05-10T12:55:57;15.10;99.90
52943;DHT22;38809;53.300;6.614;2023-05-10T12:58:23;15.20;99.90
52943;DHT22;38809;53.300;6.614;2023-05-10T13:00:49;15.20;99.90
52943;DHT22;38809;53.300;6.614;2023-05-10T13:03:17;15.30;99.90
52943;DHT22;38809;53.300;6.614;2023-05-10T13:05:42;15.30;99.90
52943;DHT22;38809;53.300;6.614;2023-05-10T13:08:08;15.40;99.90
52943;DHT22;38809;53.300;6.614;2023-05-10T13:10:34;15.20;99.90
52943;DHT22;38809;53.300;6.614;2023-05-10T13:12:59;15.20;99.90
52943;DHT22;38809;53.300;6.614;2023-05-10T13:15:26;15.20;99.90
52943;DHT22;38809;53.300;6.614;2023-05-10T13:17:52;15.20;99.90
52943;DHT22;38809;53.300;6.614;2023-05-10T13:20:18;15.30;99.90
52943;DHT22;38809;53.300;6.614;2023-05-10T13:22:44;15.40;99.90
52943;DHT22;38809;53.300;6.614;2023-05-10T13:25:10;15.30;99.90
52943;DHT22;38809;53.300;6.614;2023-05-10T13:27:36;15.40;99.90
52943;DHT22;38809;53.300;6.614;2023-05-10T13:30:02;15.40;99.90
52943;DHT22;38809;53.300;6.614;2023-05-10T13:32:29;15.40;99.90
52943;DHT22;38809;53.300;6.614;2023-05-10T13:34:55;15.50;99.90
52943;DHT22;38809;53.300;6.614;2023-05-10T13:37:21;15.70;99.90
52943;DHT22;38809;53.300;6.614;2023-05-10T13:39:47;15.70;99.90
52943;DHT22;38809;53.300;6.614;2023-05-10T13:42:13;15.80;99.90
52943;DHT22;38809;53.300;6.614;2023-05-10T13:44:39;15.90;99.90
52943;DHT22;38809;53.300;6.614;2023-05-10T13:47:05;15.80;99.90
52943;DHT22;38809;53.300;6.614;2023-05-10T13:49:31;15.90;99.90
52943;DHT22;38809;53.300;6.614;2023-05-10T13:51:57;16.00;99.90
52943;DHT22;38809;53.300;6.614;2023-05-10T13:54:23;16.10;99.90
52943;DHT22;38809;53.300;6.614;2023-05-10T13:56:49;16.00;99.90
52943;DHT22;38809;53.300;6.614;2023-05-10T13:59:15;16.10;99.90
52943;DHT22;38809;53.300;6.614;2023-05-10T14:01:41;16.10;99.90
52943;DHT22;38809;53.300;6.614;2023-05-10T14:04:08;16.20;99.90
52943;DHT22;38809;53.300;6.614;2023-05-10T14:06:36;16.00;99.90
52943;DHT22;38809;53.300;6.614;2023-05-10T14:09:03;16.10;99.90
52943;DHT22;38809;53.300;6.614;2023-05-10T14:11:29;16.20;99.90
52943;DHT22;38809;53.300;6.614;2023-05-10T14:13:54;16.30;99.90
52943;DHT22;38809;53.300;6.614;2023-05-10T14:16:20;16.10;99.90
52943;DHT22;38809;53.300;6.614;2023-05-10T14:18:46;16.10;99.90
52943;DHT22;38809;53.300;6.614;2023-05-10T14:21:12;16.00;99.90
52943;DHT22;38809;53.300;6.614;2023-05-10T14:23:38;16.00;99.90
52943;DHT22;38809;53.300;6.614;2023-05-10T14:26:04;16.00;99.90
52943;DHT22;38809;53.300;6.614;2023-05-10T14:28:30;15.90;99.90
52943;DHT22;38809;53.300;6.614;2023-05-10T14:30:56;15.90;99.90
52943;DHT22;38809;53.300;6.614;2023-05-10T14:33:21;15.80;99.90
52943;DHT22;38809;53.300;6.614;2023-05-10T14:35:47;15.70;99.90
52943;DHT22;38809;53.300;6.614;2023-05-10T14:38:13;15.60;99.90
52943;DHT22;38809;53.300;6.614;2023-05-10T14:40:39;15.60;99.90
52943;DHT22;38809;53.300;6.614;2023-05-10T14:43:05;15.50;99.90
52943;DHT22;38809;53.300;6.614;2023-05-10T14:45:31;15.60;99.90
52943;DHT22;38809;53.300;6.614;2023-05-10T14:47:57;15.50;99.90
52943;DHT22;38809;53.300;6.614;2023-05-10T14:50:23;15.40;99.90
52943;DHT22;38809;53.300;6.614;2023-05-10T14:52:49;15.70;99.90
52943;DHT22;38809;53.300;6.614;2023-05-10T14:55:15;15.60;99.90
52943;DHT22;38809;53.300;6.614;2023-05-10T14:57:41;15.70;99.90
52943;DHT22;38809;53.300;6.614;2023-05-10T15:00:07;15.80;99.90
52943;DHT22;38809;53.300;6.614;2023-05-10T15:02:33;15.70;99.90
52943;DHT22;38809;53.300;6.614;2023-05-10T15:04:59;15.90;99.90
52943;DHT22;38809;53.300;6.614;2023-05-10T15:07:24;15.80;99.90
52943;DHT22;38809;53.300;6.614;2023-05-10T15:09:51;16.00;99.90
52943;DHT22;38809;53.300;6.614;2023-05-10T15:12:20;16.20;99.90
52943;DHT22;38809;53.300;6.614;2023-05-10T15:14:46;16.10;99.90
52943;DHT22;38809;53.300;6.614;2023-05-10T15:17:12;16.10;99.90
52943;DHT22;38809;53.300;6.614;2023-05-10T15:19:37;16.10;99.90
52943;DHT22;38809;53.300;6.614;2023-05-10T15:22:04;16.20;99.90
52943;DHT22;38809;53.300;6.614;2023-05-10T15:24:31;16.10;99.90
52943;DHT22;38809;53.300;6.614;2023-05-10T15:26:57;15.80;99.90
52943;DHT22;38809;53.300;6.614;2023-05-10T15:29:22;15.40;99.90
52943;DHT22;38809;53.300;6.614;2023-05-10T15:31:49;15.50;99.90
52943;DHT22;38809;53.300;6.614;2023-05-10T15:34:17;15.60;99.90
52943;DHT22;38809;53.300;6.614;2023-05-10T15:36:43;15.40;99.90
52943;DHT22;38809;53.300;6.614;2023-05-10T15:39:10;15.50;99.90
52943;DHT22;38809;53.300;6.614;2023-05-10T15:41:35;15.70;99.90
52943;DHT22;38809;53.300;6.614;2023-05-10T15:44:01;15.60;99.90
52943;DHT22;38809;53.300;6.614;2023-05-10T15:46:28;15.70;99.90
52943;DHT22;38809;53.300;6.614;2023-05-10T15:48:54;15.70;99.90
52943;DHT22;38809;53.300;6.614;2023-05-10T15:51:19;15.70;99.90
52943;DHT22;38809;53.300;6.614;2023-05-10T15:53:45;15.50;99.90
52943;DHT22;38809;53.300;6.614;2023-05-10T15:56:11;15.40;99.90